sensor_id;sensor_type;location;lat;lon;timestamp;pressure;altitude;pressure_sealevel;temperature;humidity
53900;BME280;40509;32.858;-116.858;2023-08-24T00:01:45;97565.50;;;28.03;40.05
53900;BME280;40509;32.858;-116.858;2023-08-24T00:04:12;97561.00;;;28.03;39.71
53900;BME280;40509;32.858;-116.858;2023-08-24T00:06:39;97570.28;;;27.79;40.02
53900;BME280;40509;32.858;-116.858;2023-08-24T00:09:06;97560.53;;;27.80;39.92
53900;BME280;40509;32.858;-116.858;2023-08-24T00:11:33;97563.38;;;27.85;39.91
53900;BME280;40509;32.858;-116.858;2023-08-24T00:13:59;97561.75;;;27.77;40.21
53900;BME280;40509;32.858;-116.858;2023-08-24T00:16:26;97568.50;;;27.86;40.24
53900;BME280;40509;32.858;-116.858;2023-08-24T00:18:53;97568.28;;;27.88;40.97
53900;BME280;40509;32.858;-116.858;2023-08-24T00:21:19;97567.69;;;27.92;41.07
53900;BME280;40509;32.858;-116.858;2023-08-24T00:23:51;97571.16;;;28.00;41.26
53900;BME280;40509;32.858;-116.858;2023-08-24T00:26:19;97574.47;;;28.08;41.19
53900;BME280;40509;32.858;-116.858;2023-08-24T00:28:46;97573.84;;;28.13;41.47
53900;BME280;40509;32.858;-116.858;2023-08-24T00:31:14;97571.00;;;28.28;41.66
53900;BME280;40509;32.858;-116.858;2023-08-24T00:33:41;97585.72;;;28.31;41.69
53900;BME280;40509;32.858;-116.858;2023-08-24T00:36:08;97586.31;;;28.26;41.96
53900;BME280;40509;32.858;-116.858;2023-08-24T00:38:35;97576.09;;;28.36;41.74
53900;BME280;40509;32.858;-116.858;2023-08-24T00:41:03;97580.19;;;28.39;42.26
53900;BME280;40509;32.858;-116.858;2023-08-24T00:43:29;97581.41;;;28.50;42.41
53900;BME280;40509;32.858;-116.858;2023-08-24T00:45:57;97581.41;;;28.43;42.82
53900;BME280;40509;32.858;-116.858;2023-08-24T00:48:25;97597.34;;;28.43;42.67
53900;BME280;40509;32.858;-116.858;2023-08-24T00:50:55;97593.47;;;28.52;42.67
53900;BME280;40509;32.858;-116.858;2023-08-24T00:53:22;97589.59;;;28.35;43.65
53900;BME280;40509;32.858;-116.858;2023-08-24T00:55:51;97598.56;;;28.47;43.68
53900;BME280;40509;32.858;-116.858;2023-08-24T00:58:18;97590.59;;;28.54;43.75
53900;BME280;40509;32.858;-116.858;2023-08-24T01:00:47;97593.47;;;28.52;43.97
53900;BME280;40509;32.858;-116.858;2023-08-24T01:03:14;97596.97;;;28.53;44.42
53900;BME280;40509;32.858;-116.858;2023-08-24T01:05:43;97595.53;;;28.43;45.10
53900;BME280;40509;32.858;-116.858;2023-08-24T01:08:11;97599.19;;;28.36;45.34
53900;BME280;40509;32.858;-116.858;2023-08-24T01:11:02;97601.44;;;28.46;45.08
53900;BME280;40509;32.858;-116.858;2023-08-24T01:16:13;97606.72;;;28.25;45.52
53900;BME280;40509;32.858;-116.858;2023-08-24T01:18:43;97616.56;;;28.38;44.83
53900;BME280;40509;32.858;-116.858;2023-08-24T01:21:10;97614.50;;;28.34;44.41
53900;BME280;40509;32.858;-116.858;2023-08-24T01:23:53;97620.63;;;28.21;44.34
53900;BME280;40509;32.858;-116.858;2023-08-24T01:26:25;97621.44;;;28.35;43.80
53900;BME280;40509;32.858;-116.858;2023-08-24T01:28:53;97620.84;;;28.26;44.07
53900;BME280;40509;32.858;-116.858;2023-08-24T01:31:24;97621.84;;;28.25;43.88
53900;BME280;40509;32.858;-116.858;2023-08-24T01:33:51;97627.56;;;28.22;43.97
53900;BME280;40509;32.858;-116.858;2023-08-24T01:36:18;97625.94;;;28.21;44.16
53900;BME280;40509;32.858;-116.858;2023-08-24T01:38:47;97623.69;;;28.24;44.23
53900;BME280;40509;32.858;-116.858;2023-08-24T01:41:21;97630.81;;;28.17;44.06
53900;BME280;40509;32.858;-116.858;2023-08-24T01:43:52;97630.81;;;28.17;44.31
53900;BME280;40509;32.858;-116.858;2023-08-24T01:46:20;97630.22;;;28.15;44.26
53900;BME280;40509;32.858;-116.858;2023-08-24T01:48:49;97635.72;;;28.20;44.36
53900;BME280;40509;32.858;-116.858;2023-08-24T01:51:16;97641.41;;;28.17;44.55
53900;BME280;40509;32.858;-116.858;2023-08-24T01:53:43;97642.06;;;28.19;44.70
53900;BME280;40509;32.858;-116.858;2023-08-24T01:56:12;97644.72;;;28.19;44.64
53900;BME280;40509;32.858;-116.858;2023-08-24T01:58:39;97645.50;;;28.20;44.85
53900;BME280;40509;32.858;-116.858;2023-08-24T02:01:10;97647.16;;;28.21;44.99
53900;BME280;40509;32.858;-116.858;2023-08-24T02:03:40;97649.59;;;28.22;45.08
53900;BME280;40509;32.858;-116.858;2023-08-24T02:06:09;97647.75;;;28.23;44.94
53900;BME280;40509;32.858;-116.858;2023-08-24T02:08:35;97657.75;;;28.14;45.26
53900;BME280;40509;32.858;-116.858;2023-08-24T02:11:03;97652.88;;;28.24;44.89
53900;BME280;40509;32.858;-116.858;2023-08-24T02:13:33;97664.88;;;28.00;45.70
53900;BME280;40509;32.858;-116.858;2023-08-24T02:16:01;97661.84;;;28.17;45.36
53900;BME280;40509;32.858;-116.858;2023-08-24T02:18:28;97664.09;;;28.20;45.48
53900;BME280;40509;32.858;-116.858;2023-08-24T02:20:58;97671.63;;;28.03;45.94
53900;BME280;40509;32.858;-116.858;2023-08-24T02:23:24;97664.19;;;27.91;46.32
53900;BME280;40509;32.858;-116.858;2023-08-24T02:25:52;97665.47;;;28.02;46.22
53900;BME280;40509;32.858;-116.858;2023-08-24T02:28:18;97673.47;;;28.16;46.00
53900;BME280;40509;32.858;-116.858;2023-08-24T02:30:47;97668.72;;;27.98;46.68
53900;BME280;40509;32.858;-116.858;2023-08-24T02:33:13;97677.28;;;28.00;46.52
53900;BME280;40509;32.858;-116.858;2023-08-24T02:35:40;97672.75;;;27.87;47.06
53900;BME280;40509;32.858;-116.858;2023-08-24T02:38:07;97677.13;;;28.15;46.62
53900;BME280;40509;32.858;-116.858;2023-08-24T02:40:33;97683.03;;;28.03;46.98
53900;BME280;40509;32.858;-116.858;2023-08-24T02:43:00;97690.28;;;27.81;48.00
53900;BME280;40509;32.858;-116.858;2023-08-24T02:45:27;97680.44;;;27.75;47.71
53900;BME280;40509;32.858;-116.858;2023-08-24T02:47:54;97687.22;;;27.84;47.94
53900;BME280;40509;32.858;-116.858;2023-08-24T02:50:20;97691.00;;;27.33;49.35
53900;BME280;40509;32.858;-116.858;2023-08-24T02:52:48;97687.47;;;27.19;49.79
53900;BME280;40509;32.858;-116.858;2023-08-24T02:55:14;97691.06;;;27.12;49.65
53900;BME280;40509;32.858;-116.858;2023-08-24T02:57:41;97698.72;;;26.71;50.69
53900;BME280;40509;32.858;-116.858;2023-08-24T03:00:08;97697.09;;;26.99;50.29
53900;BME280;40509;32.858;-116.858;2023-08-24T03:02:36;97696.53;;;27.03;50.20
53900;BME280;40509;32.858;-116.858;2023-08-24T03:05:02;97708.25;;;26.87;50.18
53900;BME280;40509;32.858;-116.858;2023-08-24T03:07:32;97699.84;;;26.84;50.23
53900;BME280;40509;32.858;-116.858;2023-08-24T03:09:58;97706.06;;;26.98;50.30
53900;BME280;40509;32.858;-116.858;2023-08-24T03:12:25;97707.47;;;26.93;50.33
53900;BME280;40509;32.858;-116.858;2023-08-24T03:14:52;97707.97;;;26.82;50.47
53900;BME280;40509;32.858;-116.858;2023-08-24T03:17:20;97717.53;;;27.05;49.89
53900;BME280;40509;32.858;-116.858;2023-08-24T03:19:47;97715.13;;;27.10;50.33
53900;BME280;40509;32.858;-116.858;2023-08-24T03:22:14;97717.25;;;27.21;50.05
53900;BME280;40509;32.858;-116.858;2023-08-24T03:24:41;97721.75;;;27.27;49.90
53900;BME280;40509;32.858;-116.858;2023-08-24T03:27:08;97720.56;;;27.30;49.92
53900;BME280;40509;32.858;-116.858;2023-08-24T03:29:36;97725.53;;;27.40;49.85
53900;BME280;40509;32.858;-116.858;2023-08-24T03:32:03;97725.88;;;27.30;49.74
53900;BME280;40509;32.858;-116.858;2023-08-24T03:34:30;97717.78;;;27.38;50.01
53900;BME280;40509;32.858;-116.858;2023-08-24T03:36:57;97727.09;;;27.34;49.78
53900;BME280;40509;32.858;-116.858;2023-08-24T03:39:24;97729.84;;;27.41;50.02
53900;BME280;40509;32.858;-116.858;2023-08-24T03:41:51;97734.00;;;27.29;50.06
53900;BME280;40509;32.858;-116.858;2023-08-24T03:44:18;97736.66;;;27.29;50.44
53900;BME280;40509;32.858;-116.858;2023-08-24T03:46:45;97740.38;;;27.34;49.96
53900;BME280;40509;32.858;-116.858;2023-08-24T03:49:11;97749.91;;;27.29;50.52
53900;BME280;40509;32.858;-116.858;2023-08-24T03:51:39;97747.31;;;27.35;50.47
53900;BME280;40509;32.858;-116.858;2023-08-24T03:54:06;97751.16;;;27.33;50.64
53900;BME280;40509;32.858;-116.858;2023-08-24T03:56:32;97745.66;;;27.34;50.62
53900;BME280;40509;32.858;-116.858;2023-08-24T03:58:59;97752.44;;;27.37;50.57
53900;BME280;40509;32.858;-116.858;2023-08-24T04:01:28;97750.44;;;27.39;50.70
53900;BME280;40509;32.858;-116.858;2023-08-24T04:03:55;97753.69;;;27.41;50.14
53900;BME280;40509;32.858;-116.858;2023-08-24T04:06:21;97760.03;;;27.47;50.15
53900;BME280;40509;32.858;-116.858;2023-08-24T04:08:48;97760.63;;;27.42;50.21
53900;BME280;40509;32.858;-116.858;2023-08-24T04:11:15;97766.34;;;27.39;50.77
53900;BME280;40509;32.858;-116.858;2023-08-24T04:13:42;97766.78;;;27.49;50.54
53900;BME280;40509;32.858;-116.858;2023-08-24T04:16:09;97759.38;;;27.38;50.44
53900;BME280;40509;32.858;-116.858;2023-08-24T04:18:36;97758.44;;;27.46;50.43
53900;BME280;40509;32.858;-116.858;2023-08-24T04:21:03;97752.69;;;27.42;50.90
53900;BME280;40509;32.858;-116.858;2023-08-24T04:23:31;97759.38;;;27.38;50.53
53900;BME280;40509;32.858;-116.858;2023-08-24T04:25:58;97756.53;;;27.39;50.64
53900;BME280;40509;32.858;-116.858;2023-08-24T04:28:25;97758.59;;;27.44;50.57
53900;BME280;40509;32.858;-116.858;2023-08-24T04:30:53;97765.69;;;27.37;51.18
53900;BME280;40509;32.858;-116.858;2023-08-24T04:33:20;97766.25;;;27.32;51.39
53900;BME280;40509;32.858;-116.858;2023-08-24T04:35:50;97762.97;;;27.30;51.50
53900;BME280;40509;32.858;-116.858;2023-08-24T04:38:17;97756.47;;;27.33;51.08
53900;BME280;40509;32.858;-116.858;2023-08-24T04:40:51;97763.78;;;27.31;51.55
53900;BME280;40509;32.858;-116.858;2023-08-24T04:43:18;97763.41;;;27.34;51.33
53900;BME280;40509;32.858;-116.858;2023-08-24T04:45:45;97768.28;;;27.30;51.60
53900;BME280;40509;32.858;-116.858;2023-08-24T04:48:13;97770.72;;;27.32;51.65
53900;BME280;40509;32.858;-116.858;2023-08-24T04:50:41;97768.91;;;27.32;51.35
53900;BME280;40509;32.858;-116.858;2023-08-24T04:53:08;97768.66;;;27.27;51.81
53900;BME280;40509;32.858;-116.858;2023-08-24T04:55:35;97769.22;;;27.22;51.97
53900;BME280;40509;32.858;-116.858;2023-08-24T04:58:01;97771.66;;;27.17;51.87
53900;BME280;40509;32.858;-116.858;2023-08-24T05:00:28;97774.97;;;27.26;51.97
53900;BME280;40509;32.858;-116.858;2023-08-24T05:02:55;97777.41;;;27.27;51.94
53900;BME280;40509;32.858;-116.858;2023-08-24T05:05:22;97776.56;;;27.20;51.72
53900;BME280;40509;32.858;-116.858;2023-08-24T05:07:48;97780.41;;;27.18;52.22
53900;BME280;40509;32.858;-116.858;2023-08-24T05:10:15;97775.56;;;27.21;51.80
53900;BME280;40509;32.858;-116.858;2023-08-24T05:12:42;97781.59;;;27.15;51.88
53900;BME280;40509;32.858;-116.858;2023-08-24T05:15:09;97778.56;;;27.18;52.34
53900;BME280;40509;32.858;-116.858;2023-08-24T05:17:36;97777.16;;;27.22;51.80
53900;BME280;40509;32.858;-116.858;2023-08-24T05:20:03;97785.06;;;27.16;52.34
53900;BME280;40509;32.858;-116.858;2023-08-24T05:22:30;97776.81;;;27.25;52.15
53900;BME280;40509;32.858;-116.858;2023-08-24T05:24:56;97782.41;;;27.16;52.02
53900;BME280;40509;32.858;-116.858;2023-08-24T05:27:23;97778.81;;;27.23;51.97
53900;BME280;40509;32.858;-116.858;2023-08-24T05:29:50;97776.16;;;27.23;52.03
53900;BME280;40509;32.858;-116.858;2023-08-24T05:32:17;97783.50;;;27.21;52.09
53900;BME280;40509;32.858;-116.858;2023-08-24T05:34:44;97789.22;;;27.25;51.92
53900;BME280;40509;32.858;-116.858;2023-08-24T05:37:11;97783.38;;;27.30;51.88
53900;BME280;40509;32.858;-116.858;2023-08-24T05:39:38;97789.88;;;27.27;51.94
53900;BME280;40509;32.858;-116.858;2023-08-24T05:42:05;97783.38;;;27.30;51.71
53900;BME280;40509;32.858;-116.858;2023-08-24T05:44:32;97780.91;;;27.28;51.89
53900;BME280;40509;32.858;-116.858;2023-08-24T05:46:59;97782.53;;;27.29;51.94
53900;BME280;40509;32.858;-116.858;2023-08-24T05:49:26;97779.88;;;27.29;51.85
53900;BME280;40509;32.858;-116.858;2023-08-24T05:51:52;97781.31;;;27.32;51.48
53900;BME280;40509;32.858;-116.858;2023-08-24T05:54:19;97780.50;;;27.31;51.78
53900;BME280;40509;32.858;-116.858;2023-08-24T05:56:46;97785.63;;;27.33;51.58
53900;BME280;40509;32.858;-116.858;2023-08-24T05:59:13;97786.00;;;27.30;51.63
53900;BME280;40509;32.858;-116.858;2023-08-24T06:01:40;97782.31;;;27.31;51.77
53900;BME280;40509;32.858;-116.858;2023-08-24T06:04:08;97784.38;;;27.29;51.48
53900;BME280;40509;32.858;-116.858;2023-08-24T06:06:35;97785.38;;;27.27;51.86
53900;BME280;40509;32.858;-116.858;2023-08-24T06:09:02;97792.31;;;27.29;51.79
53900;BME280;40509;32.858;-116.858;2023-08-24T06:11:34;97787.22;;;27.27;51.81
53900;BME280;40509;32.858;-116.858;2023-08-24T06:14:09;97788.03;;;27.27;51.45
53900;BME280;40509;32.858;-116.858;2023-08-24T06:16:35;97795.78;;;27.29;51.74
53900;BME280;40509;32.858;-116.858;2023-08-24T06:19:02;97798.00;;;27.25;51.57
53900;BME280;40509;32.858;-116.858;2023-08-24T06:21:29;97793.97;;;27.30;51.91
53900;BME280;40509;32.858;-116.858;2023-08-24T06:23:56;97798.81;;;27.26;51.46
53900;BME280;40509;32.858;-116.858;2023-08-24T06:26:23;97795.97;;;27.27;51.82
53900;BME280;40509;32.858;-116.858;2023-08-24T06:28:49;97792.72;;;27.25;51.81
53900;BME280;40509;32.858;-116.858;2023-08-24T06:31:17;97794.91;;;27.22;52.00
53900;BME280;40509;32.858;-116.858;2023-08-24T06:33:44;97791.66;;;27.26;51.83
53900;BME280;40509;32.858;-116.858;2023-08-24T06:36:11;97798.38;;;27.22;51.52
53900;BME280;40509;32.858;-116.858;2023-08-24T06:38:38;97793.91;;;27.23;51.95
53900;BME280;40509;32.858;-116.858;2023-08-24T06:41:05;97791.06;;;27.24;51.89
53900;BME280;40509;32.858;-116.858;2023-08-24T06:43:31;97789.41;;;27.23;51.52
53900;BME280;40509;32.858;-116.858;2023-08-24T06:45:58;97786.16;;;27.21;51.79
53900;BME280;40509;32.858;-116.858;2023-08-24T06:48:25;97786.97;;;27.22;51.61
53900;BME280;40509;32.858;-116.858;2023-08-24T06:50:51;97788.81;;;27.21;51.58
53900;BME280;40509;32.858;-116.858;2023-08-24T06:53:18;97789.03;;;27.26;51.80
53900;BME280;40509;32.858;-116.858;2023-08-24T06:55:45;97794.09;;;27.21;51.61
53900;BME280;40509;32.858;-116.858;2023-08-24T06:58:11;97797.13;;;27.18;51.89
53900;BME280;40509;32.858;-116.858;2023-08-24T07:00:38;97792.91;;;27.24;51.54
53900;BME280;40509;32.858;-116.858;2023-08-24T07:03:05;97784.91;;;27.17;51.61
53900;BME280;40509;32.858;-116.858;2023-08-24T07:05:32;97789.34;;;27.17;51.71
53900;BME280;40509;32.858;-116.858;2023-08-24T07:08:00;97788.56;;;27.16;51.68
53900;BME280;40509;32.858;-116.858;2023-08-24T07:10:27;97784.50;;;27.20;51.90
53900;BME280;40509;32.858;-116.858;2023-08-24T07:12:53;97777.56;;;27.19;51.56
53900;BME280;40509;32.858;-116.858;2023-08-24T07:15:20;97777.94;;;27.16;52.08
53900;BME280;40509;32.858;-116.858;2023-08-24T07:17:47;97772.22;;;27.13;52.12
53900;BME280;40509;32.858;-116.858;2023-08-24T07:20:13;97776.09;;;27.17;51.64
53900;BME280;40509;32.858;-116.858;2023-08-24T07:22:40;97786.91;;;27.15;52.14
53900;BME280;40509;32.858;-116.858;2023-08-24T07:25:07;97774.03;;;27.12;51.72
53900;BME280;40509;32.858;-116.858;2023-08-24T07:27:34;97779.16;;;27.14;52.14
53900;BME280;40509;32.858;-116.858;2023-08-24T07:30:01;97777.94;;;27.16;51.69
53900;BME280;40509;32.858;-116.858;2023-08-24T07:32:32;97778.34;;;27.13;52.18
53900;BME280;40509;32.858;-116.858;2023-08-24T07:34:59;97774.66;;;27.14;51.65
53900;BME280;40509;32.858;-116.858;2023-08-24T07:37:26;97780.34;;;27.11;51.71
53900;BME280;40509;32.858;-116.858;2023-08-24T07:39:53;97776.06;;;27.10;51.93
53900;BME280;40509;32.858;-116.858;2023-08-24T07:42:20;97775.25;;;27.09;52.23
53900;BME280;40509;32.858;-116.858;2023-08-24T07:44:47;97778.28;;;27.06;51.88
53900;BME280;40509;32.858;-116.858;2023-08-24T07:47:15;97776.25;;;27.08;52.04
53900;BME280;40509;32.858;-116.858;2023-08-24T07:49:42;97780.75;;;27.08;52.01
53900;BME280;40509;32.858;-116.858;2023-08-24T07:52:12;97777.84;;;27.03;52.01
53900;BME280;40509;32.858;-116.858;2023-08-24T07:54:39;97777.19;;;27.01;51.97
53900;BME280;40509;32.858;-116.858;2023-08-24T07:57:06;97771.16;;;27.07;51.77
53900;BME280;40509;32.858;-116.858;2023-08-24T07:59:33;97767.44;;;27.01;51.99
53900;BME280;40509;32.858;-116.858;2023-08-24T08:01:59;97776.56;;;26.99;52.06
53900;BME280;40509;32.858;-116.858;2023-08-24T08:04:26;97782.31;;;27.02;51.89
53900;BME280;40509;32.858;-116.858;2023-08-24T08:06:53;97781.22;;;26.97;52.01
53900;BME280;40509;32.858;-116.858;2023-08-24T08:09:19;97776.38;;;27.00;52.27
53900;BME280;40509;32.858;-116.858;2023-08-24T08:11:46;97778.59;;;26.97;52.09
53900;BME280;40509;32.858;-116.858;2023-08-24T08:14:13;97777.78;;;26.96;51.97
53900;BME280;40509;32.858;-116.858;2023-08-24T08:16:40;97781.22;;;26.97;52.42
53900;BME280;40509;32.858;-116.858;2023-08-24T08:19:06;97778.59;;;26.97;51.95
53900;BME280;40509;32.858;-116.858;2023-08-24T08:21:33;97775.94;;;26.97;52.01
53900;BME280;40509;32.858;-116.858;2023-08-24T08:24:00;97770.03;;;26.95;52.45
53900;BME280;40509;32.858;-116.858;2023-08-24T08:26:27;97768.75;;;26.90;52.16
53900;BME280;40509;32.858;-116.858;2023-08-24T08:28:53;97759.81;;;26.91;52.12
53900;BME280;40509;32.858;-116.858;2023-08-24T08:31:20;97765.13;;;26.91;52.32
53900;BME280;40509;32.858;-116.858;2023-08-24T08:33:47;97761.44;;;26.92;52.48
53900;BME280;40509;32.858;-116.858;2023-08-24T08:36:15;97763.09;;;26.93;52.09
53900;BME280;40509;32.858;-116.858;2023-08-24T08:38:41;97760.81;;;26.90;52.11
53900;BME280;40509;32.858;-116.858;2023-08-24T08:41:08;97760.19;;;26.88;52.17
53900;BME280;40509;32.858;-116.858;2023-08-24T08:43:35;97768.31;;;26.87;52.37
53900;BME280;40509;32.858;-116.858;2023-08-24T08:46:04;97761.94;;;26.81;52.31
53900;BME280;40509;32.858;-116.858;2023-08-24T08:48:31;97761.75;;;26.83;52.34
53900;BME280;40509;32.858;-116.858;2023-08-24T08:50:59;97757.91;;;26.85;52.41
53900;BME280;40509;32.858;-116.858;2023-08-24T08:53:28;97764.84;;;26.86;52.19
53900;BME280;40509;32.858;-116.858;2023-08-24T08:55:55;97757.91;;;26.85;52.28
53900;BME280;40509;32.858;-116.858;2023-08-24T08:58:24;97760.94;;;26.82;52.16
53900;BME280;40509;32.858;-116.858;2023-08-24T09:00:52;97767.50;;;26.86;52.18
53900;BME280;40509;32.858;-116.858;2023-08-24T09:03:18;97765.25;;;26.83;52.20
53900;BME280;40509;32.858;-116.858;2023-08-24T09:05:46;97770.53;;;26.83;52.14
53900;BME280;40509;32.858;-116.858;2023-08-24T09:08:16;97773.19;;;26.83;52.22
53900;BME280;40509;32.858;-116.858;2023-08-24T09:10:44;97771.34;;;26.84;52.39
53900;BME280;40509;32.858;-116.858;2023-08-24T09:13:11;97782.13;;;26.82;52.24
53900;BME280;40509;32.858;-116.858;2023-08-24T09:15:38;97787.25;;;26.84;52.08
53900;BME280;40509;32.858;-116.858;2023-08-24T09:18:05;97792.28;;;26.79;52.60
53900;BME280;40509;32.858;-116.858;2023-08-24T09:20:31;97796.38;;;26.81;52.32
53900;BME280;40509;32.858;-116.858;2023-08-24T09:23:00;97793.94;;;26.80;52.37
53900;BME280;40509;32.858;-116.858;2023-08-24T09:25:27;97805.31;;;26.80;52.42
53900;BME280;40509;32.858;-116.858;2023-08-24T09:28:00;97802.25;;;26.77;52.46
53900;BME280;40509;32.858;-116.858;2023-08-24T09:30:36;97810.81;;;26.79;52.27
53900;BME280;40509;32.858;-116.858;2023-08-24T09:33:10;97801.59;;;26.74;52.60
53900;BME280;40509;32.858;-116.858;2023-08-24T09:35:37;97806.53;;;26.78;52.56
53900;BME280;40509;32.858;-116.858;2023-08-24T09:38:20;97805.25;;;26.73;52.43
53900;BME280;40509;32.858;-116.858;2023-08-24T09:40:52;97801.00;;;26.72;52.62
53900;BME280;40509;32.858;-116.858;2023-08-24T09:43:19;97793.66;;;26.74;52.17
53900;BME280;40509;32.858;-116.858;2023-08-24T09:45:50;97803.06;;;26.77;52.54
53900;BME280;40509;32.858;-116.858;2023-08-24T09:48:17;97797.69;;;26.70;52.62
53900;BME280;40509;32.858;-116.858;2023-08-24T09:50:45;97801.41;;;26.76;52.05
53900;BME280;40509;32.858;-116.858;2023-08-24T09:53:15;97794.66;;;26.73;52.50
53900;BME280;40509;32.858;-116.858;2023-08-24T09:55:44;97801.81;;;26.73;52.61
53900;BME280;40509;32.858;-116.858;2023-08-24T09:58:13;97810.44;;;26.67;52.44
53900;BME280;40509;32.858;-116.858;2023-08-24T10:00:39;97801.50;;;26.68;52.46
53900;BME280;40509;32.858;-116.858;2023-08-24T10:03:06;97801.31;;;26.69;52.18
53900;BME280;40509;32.858;-116.858;2023-08-24T10:05:34;97804.53;;;26.65;52.53
53900;BME280;40509;32.858;-116.858;2023-08-24T10:08:01;97796.22;;;26.68;52.47
53900;BME280;40509;32.858;-116.858;2023-08-24T10:10:29;97796.78;;;26.63;52.29
53900;BME280;40509;32.858;-116.858;2023-08-24T10:13:08;97801.06;;;26.64;52.16
53900;BME280;40509;32.858;-116.858;2023-08-24T10:15:38;97799.84;;;26.67;52.51
53900;BME280;40509;32.858;-116.858;2023-08-24T10:18:13;97794.41;;;26.68;52.50
53900;BME280;40509;32.858;-116.858;2023-08-24T10:27:32;97794.88;;;26.57;52.71
53900;BME280;40509;32.858;-116.858;2023-08-24T10:29:58;97796.53;;;26.58;52.46
53900;BME280;40509;32.858;-116.858;2023-08-24T10:35:38;97792.69;;;26.61;52.24
53900;BME280;40509;32.858;-116.858;2023-08-24T10:38:05;97793.88;;;26.58;52.21
53900;BME280;40509;32.858;-116.858;2023-08-24T10:43:02;97801.00;;;26.57;52.60
53900;BME280;40509;32.858;-116.858;2023-08-24T10:45:53;97796.44;;;26.51;52.67
53900;BME280;40509;32.858;-116.858;2023-08-24T10:48:16;97798.16;;;26.59;52.59
53900;BME280;40509;32.858;-116.858;2023-08-24T10:50:43;97795.88;;;26.56;52.45
53900;BME280;40509;32.858;-116.858;2023-08-24T10:53:50;97803.38;;;26.52;52.62
53900;BME280;40509;32.858;-116.858;2023-08-24T10:56:17;97796.72;;;26.56;52.46
53900;BME280;40509;32.858;-116.858;2023-08-24T10:58:45;97798.09;;;26.52;52.37
53900;BME280;40509;32.858;-116.858;2023-08-24T11:01:15;97796.00;;;26.48;52.71
53900;BME280;40509;32.858;-116.858;2023-08-24T11:03:50;97801.56;;;26.53;52.50
53900;BME280;40509;32.858;-116.858;2023-08-24T11:06:26;97806.66;;;26.54;52.22
53900;BME280;40509;32.858;-116.858;2023-08-24T11:09:07;97815.63;;;26.53;52.05
53900;BME280;40509;32.858;-116.858;2023-08-24T11:11:54;97802.41;;;26.53;52.41
53900;BME280;40509;32.858;-116.858;2023-08-24T11:14:22;97809.31;;;26.54;52.32
53900;BME280;40509;32.858;-116.858;2023-08-24T11:16:52;97805.03;;;26.53;52.16
53900;BME280;40509;32.858;-116.858;2023-08-24T11:19:19;97804.19;;;26.53;52.21
53900;BME280;40509;32.858;-116.858;2023-08-24T11:21:46;97802.13;;;26.48;52.17
53900;BME280;40509;32.858;-116.858;2023-08-24T11:24:13;97801.94;;;26.50;52.42
53900;BME280;40509;32.858;-116.858;2023-08-24T11:26:47;97806.78;;;26.46;52.13
53900;BME280;40509;32.858;-116.858;2023-08-24T11:29:14;97804.31;;;26.45;52.27
53900;BME280;40509;32.858;-116.858;2023-08-24T11:31:47;97808.22;;;26.49;52.10
53900;BME280;40509;32.858;-116.858;2023-08-24T11:34:17;97801.34;;;26.54;52.25
53900;BME280;40509;32.858;-116.858;2023-08-24T11:36:46;97806.03;;;26.52;52.35
53900;BME280;40509;32.858;-116.858;2023-08-24T11:39:14;97799.47;;;26.48;52.32
53900;BME280;40509;32.858;-116.858;2023-08-24T11:41:41;97809.88;;;26.50;52.41
53900;BME280;40509;32.858;-116.858;2023-08-24T11:44:08;97813.06;;;26.45;52.49
53900;BME280;40509;32.858;-116.858;2023-08-24T11:46:34;97810.69;;;26.50;52.32
53900;BME280;40509;32.858;-116.858;2023-08-24T11:49:05;97814.81;;;26.38;52.31
53900;BME280;40509;32.858;-116.858;2023-08-24T11:51:32;97812.16;;;26.38;52.39
53900;BME280;40509;32.858;-116.858;2023-08-24T11:54:00;97812.44;;;26.43;52.39
53900;BME280;40509;32.858;-116.858;2023-08-24T11:56:27;97817.75;;;26.43;52.37
53900;BME280;40509;32.858;-116.858;2023-08-24T11:58:54;97818.66;;;26.35;52.20
53900;BME280;40509;32.858;-116.858;2023-08-24T12:01:21;97820.56;;;26.41;52.25
53900;BME280;40509;32.858;-116.858;2023-08-24T12:03:48;97823.03;;;26.43;52.01
53900;BME280;40509;32.858;-116.858;2023-08-24T12:06:16;97831.59;;;26.45;51.95
53900;BME280;40509;32.858;-116.858;2023-08-24T12:08:45;97827.59;;;26.34;52.19
53900;BME280;40509;32.858;-116.858;2023-08-24T12:11:15;97823.75;;;26.37;52.36
53900;BME280;40509;32.858;-116.858;2023-08-24T12:13:43;97832.81;;;26.42;52.34
53900;BME280;40509;32.858;-116.858;2023-08-24T12:16:11;97834.19;;;26.38;52.04
53900;BME280;40509;32.858;-116.858;2023-08-24T12:18:54;97834.63;;;26.42;51.91
53900;BME280;40509;32.858;-116.858;2023-08-24T12:21:21;97835.00;;;26.39;52.26
53900;BME280;40509;32.858;-116.858;2023-08-24T12:23:55;97840.00;;;26.34;52.22
53900;BME280;40509;32.858;-116.858;2023-08-24T12:26:22;97845.19;;;26.42;52.21
53900;BME280;40509;32.858;-116.858;2023-08-24T12:28:52;97849.22;;;26.38;52.10
53900;BME280;40509;32.858;-116.858;2023-08-24T12:31:19;97848.31;;;26.31;52.51
53900;BME280;40509;32.858;-116.858;2023-08-24T12:33:56;97857.06;;;26.31;52.37
53900;BME280;40509;32.858;-116.858;2023-08-24T12:36:24;97853.44;;;26.32;52.26
53900;BME280;40509;32.858;-116.858;2023-08-24T12:38:51;97856.28;;;26.31;52.09
53900;BME280;40509;32.858;-116.858;2023-08-24T12:41:17;97853.91;;;26.36;52.21
53900;BME280;40509;32.858;-116.858;2023-08-24T12:43:45;97860.19;;;26.35;52.14
53900;BME280;40509;32.858;-116.858;2023-08-24T12:46:12;97866.84;;;26.31;52.29
53900;BME280;40509;32.858;-116.858;2023-08-24T12:48:39;97865.84;;;26.32;52.38
53900;BME280;40509;32.858;-116.858;2023-08-24T12:51:06;97864.41;;;26.29;52.29